createdAt,value
2018-07-31T00:01:20.192Z,100819.86
2018-07-31T00:03:49.274Z,100810.91
2018-07-31T00:06:18.384Z,100806.98
2018-07-31T00:08:48.255Z,100813.14
2018-07-31T00:11:17.572Z,100811.89
2018-07-31T00:13:46.647Z,100811.25
2018-07-31T00:16:15.779Z,100811.44
2018-07-31T00:18:44.927Z,100806.19
2018-07-31T00:21:14.048Z,100805.78
2018-07-31T00:23:43.164Z,100805.30
2018-07-31T00:26:12.253Z,100804.91
2018-07-31T00:28:41.425Z,100808.77
2018-07-31T00:31:10.520Z,100810.61
2018-07-31T00:33:39.603Z,100805.77
2018-07-31T00:36:08.763Z,100815.10
2018-07-31T00:38:37.857Z,100807.45
2018-07-31T00:41:07.008Z,100796.59
2018-07-31T00:43:36.143Z,100802.95
2018-07-31T00:46:05.223Z,100800.16
2018-07-31T00:48:34.325Z,100805.52
2018-07-31T00:51:03.410Z,100807.67
2018-07-31T00:53:32.499Z,100801.13
2018-07-31T00:56:01.600Z,100802.44
2018-07-31T00:58:30.712Z,100802.06
2018-07-31T01:00:59.788Z,100801.89
2018-07-31T01:03:28.880Z,100799.50
2018-07-31T01:05:57.957Z,100803.79
2018-07-31T01:08:27.084Z,100803.91
2018-07-31T01:10:56.202Z,100802.70
2018-07-31T01:13:25.286Z,100808.09
2018-07-31T01:15:54.356Z,100793.94
2018-07-31T01:18:23.432Z,100796.02
2018-07-31T01:20:52.732Z,100793.53
2018-07-31T01:23:21.808Z,100790.90
2018-07-31T01:25:51.024Z,100787.41
2018-07-31T01:28:20.084Z,100788.09
2018-07-31T01:30:49.203Z,100783.03
2018-07-31T01:33:18.319Z,100783.76
2018-07-31T01:35:47.412Z,100784.28
2018-07-31T01:38:16.484Z,100781.94
2018-07-31T01:40:45.577Z,100788.26
2018-07-31T01:43:14.669Z,100785.08
2018-07-31T01:45:43.770Z,100778.77
2018-07-31T01:48:12.845Z,100781.48
2018-07-31T01:50:41.961Z,100772.09
2018-07-31T01:53:11.080Z,100771.47
2018-07-31T01:55:40.187Z,100773.34
2018-07-31T01:58:09.284Z,100771.05
2018-07-31T02:00:38.407Z,100766.13
2018-07-31T02:03:07.499Z,100771.63
2018-07-31T02:05:36.592Z,100765.61
2018-07-31T02:08:05.928Z,100765.23
2018-07-31T02:10:35.029Z,100761.45
2018-07-31T02:13:04.131Z,100757.66
2018-07-31T02:15:33.228Z,100757.70
2018-07-31T02:18:02.312Z,100759.52
2018-07-31T02:20:31.412Z,100751.63
2018-07-31T02:23:00.520Z,100755.95
2018-07-31T02:25:29.652Z,100757.00
2018-07-31T02:27:58.787Z,100754.50
2018-07-31T02:30:27.796Z,100757.41
2018-07-31T02:32:56.894Z,100757.66
2018-07-31T02:35:25.991Z,100759.72
2018-07-31T02:37:55.089Z,100761.67
2018-07-31T02:40:24.204Z,100758.06
2018-07-31T02:42:53.305Z,100761.52
2018-07-31T02:45:22.376Z,100759.85
2018-07-31T02:47:51.492Z,100759.41
2018-07-31T02:50:20.564Z,100753.75
2018-07-31T02:52:49.693Z,100752.48
2018-07-31T02:55:18.756Z,100747.27
2018-07-31T02:57:47.844Z,100751.10
2018-07-31T03:00:16.999Z,100747.68
2018-07-31T03:02:46.083Z,100748.39
2018-07-31T03:05:15.196Z,100754.23
2018-07-31T03:07:44.313Z,100756.25
2018-07-31T03:10:13.396Z,100753.83
2018-07-31T03:12:42.503Z,100759.44
2018-07-31T03:15:12.036Z,100757.27
2018-07-31T03:17:41.129Z,100756.58
2018-07-31T03:20:10.224Z,100760.17
2018-07-31T03:22:39.324Z,100759.94
2018-07-31T03:25:08.919Z,100762.16
2018-07-31T03:27:38.021Z,100762.20
2018-07-31T03:30:07.132Z,100764.49
2018-07-31T03:32:36.265Z,100770.42
2018-07-31T03:35:05.403Z,100770.34
2018-07-31T03:37:34.497Z,100762.51
2018-07-31T03:40:03.581Z,100764.12
2018-07-31T03:42:32.655Z,100764.70
2018-07-31T03:45:01.783Z,100773.36
2018-07-31T03:47:30.851Z,100772.02
2018-07-31T03:50:01.013Z,100770.75
2018-07-31T03:52:30.069Z,100771.27
2018-07-31T03:54:59.205Z,100775.66
2018-07-31T03:57:28.305Z,100778.12
2018-07-31T03:59:57.418Z,100776.37
2018-07-31T04:02:26.517Z,100782.77
2018-07-31T04:04:55.624Z,100783.94
2018-07-31T04:07:24.748Z,100775.11
2018-07-31T04:09:53.860Z,100780.86
2018-07-31T04:12:22.946Z,100779.11
2018-07-31T04:14:53.061Z,100778.53
2018-07-31T04:17:22.194Z,100781.98
2018-07-31T04:19:51.325Z,100783.45
2018-07-31T04:22:20.440Z,100789.01
2018-07-31T04:24:49.572Z,100781.55
2018-07-31T04:27:18.678Z,100788.94
2018-07-31T04:29:47.793Z,100784.38
2018-07-31T04:32:16.900Z,100786.70
2018-07-31T04:34:46.033Z,100790.80
2018-07-31T04:37:15.114Z,100790.84
2018-07-31T04:39:44.221Z,100787.70
2018-07-31T04:42:13.317Z,100791.56
2018-07-31T04:44:42.433Z,100799.20
2018-07-31T04:47:11.526Z,100797.66
2018-07-31T04:49:40.616Z,100794.05
2018-07-31T04:52:09.717Z,100794.86
2018-07-31T04:54:38.805Z,100793.70
2018-07-31T04:57:07.928Z,100796.61
2018-07-31T04:59:37.029Z,100793.34
2018-07-31T05:02:06.148Z,100793.95
2018-07-31T05:04:35.260Z,100796.61
2018-07-31T05:07:04.402Z,100801.90
2018-07-31T05:09:33.480Z,100808.90
2018-07-31T05:12:02.602Z,100808.71
2018-07-31T05:14:31.689Z,100807.55
2018-07-31T05:17:00.840Z,100802.19
2018-07-31T05:19:29.923Z,100798.98
2018-07-31T05:21:59.032Z,100810.48
2018-07-31T05:24:28.127Z,100807.03
2018-07-31T05:26:57.243Z,100812.94
2018-07-31T05:29:26.323Z,100819.51
2018-07-31T05:31:55.455Z,100821.67
2018-07-31T05:34:24.584Z,100830.84
2018-07-31T05:36:53.686Z,100832.95
2018-07-31T05:39:22.761Z,100836.89
2018-07-31T05:41:51.881Z,100836.14
2018-07-31T05:44:20.988Z,100842.73
2018-07-31T05:46:50.093Z,100849.72
2018-07-31T05:49:19.193Z,100844.83
2018-07-31T05:51:48.336Z,100849.23
2018-07-31T05:54:17.429Z,100854.37
2018-07-31T05:56:46.532Z,100852.03
2018-07-31T05:59:15.604Z,100851.25
2018-07-31T06:01:44.732Z,100855.23
2018-07-31T06:04:13.817Z,100860.59
2018-07-31T06:06:42.893Z,100864.08
2018-07-31T06:09:12.068Z,100860.42
2018-07-31T06:11:41.168Z,100853.09
2018-07-31T06:14:10.297Z,100859.47
2018-07-31T06:16:40.200Z,100862.67
2018-07-31T06:19:09.468Z,100858.95
2018-07-31T06:21:38.704Z,100859.95
2018-07-31T06:24:07.821Z,100858.00
2018-07-31T06:26:36.908Z,100866.02
2018-07-31T06:29:06.067Z,100864.02
2018-07-31T06:31:35.172Z,100864.19
2018-07-31T06:34:04.260Z,100862.75
2018-07-31T06:36:33.364Z,100863.97
2018-07-31T06:39:02.649Z,100874.04
2018-07-31T06:41:31.744Z,100870.63
2018-07-31T06:44:00.943Z,100867.25
2018-07-31T06:46:30.080Z,100865.41
2018-07-31T06:48:59.189Z,100866.72
2018-07-31T06:51:28.293Z,100867.33
2018-07-31T06:53:57.412Z,100869.41
2018-07-31T06:56:26.553Z,100867.08
2018-07-31T06:58:56.056Z,100868.66
2018-07-31T07:01:25.200Z,100876.75
2018-07-31T07:03:54.327Z,100882.69
2018-07-31T07:06:24.449Z,100890.09
2018-07-31T07:08:53.640Z,100885.38
2018-07-31T07:11:22.740Z,100889.02
2018-07-31T07:13:51.856Z,100881.94
2018-07-31T07:16:20.987Z,100885.18
2018-07-31T07:18:50.073Z,100877.45
2018-07-31T07:21:19.180Z,100879.52
2018-07-31T07:23:48.691Z,100883.92
2018-07-31T07:26:17.844Z,100879.52
2018-07-31T07:28:46.956Z,100874.37
2018-07-31T07:31:16.097Z,100876.61
2018-07-31T07:33:45.217Z,100877.39
2018-07-31T07:36:14.302Z,100876.30
2018-07-31T07:38:43.434Z,100881.16
2018-07-31T07:41:12.859Z,100881.95
2018-07-31T07:43:42.645Z,100872.55
2018-07-31T07:46:11.761Z,100873.75
2018-07-31T07:48:40.906Z,100875.20
2018-07-31T07:51:10.021Z,100876.02
2018-07-31T07:53:39.121Z,100885.47
2018-07-31T07:56:08.257Z,100887.59
2018-07-31T07:58:37.359Z,100885.59
2018-07-31T08:01:06.613Z,100885.56
2018-07-31T08:03:35.702Z,100886.55
2018-07-31T08:06:04.792Z,100891.81
2018-07-31T08:08:34.689Z,100895.86
2018-07-31T08:11:03.935Z,100883.99
2018-07-31T08:13:33.037Z,100889.45
2018-07-31T08:16:02.113Z,100892.46
2018-07-31T08:18:31.232Z,100897.92
2018-07-31T08:21:00.520Z,100902.06
2018-07-31T08:23:29.625Z,100905.27
2018-07-31T08:25:58.717Z,100903.78
2018-07-31T08:28:27.816Z,100903.19
2018-07-31T08:30:56.920Z,100911.87
2018-07-31T08:33:26.102Z,100912.78
2018-07-31T08:35:55.519Z,100910.72
2018-07-31T08:38:24.630Z,100911.47
2018-07-31T08:40:53.839Z,100909.09
2018-07-31T08:43:22.953Z,100912.37
2018-07-31T08:45:52.508Z,100915.53
2018-07-31T08:48:21.613Z,100916.58
2018-07-31T08:50:50.756Z,100917.86
2018-07-31T08:53:19.868Z,100917.91
2018-07-31T08:55:48.986Z,100912.72
2018-07-31T08:58:18.059Z,100919.53
2018-07-31T09:00:47.168Z,100914.73
2018-07-31T09:03:16.258Z,100916.98
2018-07-31T09:05:45.412Z,100914.89
2018-07-31T09:08:14.570Z,100914.73
2018-07-31T09:10:43.625Z,100918.49
2018-07-31T09:13:12.709Z,100919.30
2018-07-31T09:15:41.813Z,100919.80
2018-07-31T09:18:10.909Z,100913.28
2018-07-31T09:20:40.029Z,100904.81
2018-07-31T09:23:09.120Z,100912.41
2018-07-31T09:25:43.579Z,100905.30
2018-07-31T09:28:12.948Z,100904.31
2018-07-31T09:30:47.508Z,100910.71
2018-07-31T09:33:16.534Z,100909.77
2018-07-31T09:35:45.890Z,100904.36
2018-07-31T09:38:15.006Z,100906.66
2018-07-31T09:40:44.117Z,100898.03
2018-07-31T09:43:13.216Z,100897.02
2018-07-31T09:45:42.329Z,100901.34
2018-07-31T09:48:11.420Z,100900.44
2018-07-31T09:50:40.565Z,100897.23
2018-07-31T09:53:09.612Z,100898.97
2018-07-31T09:55:38.760Z,100901.93
2018-07-31T09:58:07.863Z,100895.60
2018-07-31T10:00:42.324Z,100902.88
2018-07-31T10:03:11.405Z,100905.42
2018-07-31T10:05:40.520Z,100899.94
2018-07-31T10:08:09.776Z,100899.73
2018-07-31T10:10:38.865Z,100900.69
2018-07-31T10:13:08.503Z,100903.53
2018-07-31T10:15:37.595Z,100898.37
2018-07-31T10:18:06.789Z,100898.72
2018-07-31T10:20:35.911Z,100899.65
2018-07-31T10:23:05.025Z,100906.80
2018-07-31T10:25:34.123Z,100902.30
2018-07-31T10:28:03.260Z,100902.88
2018-07-31T10:30:33.359Z,100905.74
2018-07-31T10:33:02.908Z,100911.13
2018-07-31T10:35:31.996Z,100918.59
2018-07-31T10:38:01.171Z,100916.23
2018-07-31T10:40:30.245Z,100913.91
2018-07-31T10:42:59.413Z,100914.28
2018-07-31T10:45:28.522Z,100919.20
2018-07-31T10:47:57.620Z,100917.30
2018-07-31T10:50:26.704Z,100920.00
2018-07-31T10:52:55.817Z,100920.91
2018-07-31T10:55:24.890Z,100911.37
2018-07-31T10:57:54.005Z,100911.73
2018-07-31T11:00:24.106Z,100912.39
2018-07-31T11:02:53.301Z,100901.55
2018-07-31T11:05:22.304Z,100898.56
2018-07-31T11:07:53.561Z,100895.47
2018-07-31T11:10:22.731Z,100894.73
2018-07-31T11:12:51.788Z,100898.06
2018-07-31T11:15:22.760Z,100901.13
2018-07-31T11:17:52.335Z,100898.02
2018-07-31T11:20:21.568Z,100899.88
2018-07-31T11:22:50.732Z,100898.23
2018-07-31T11:25:20.164Z,100893.34
2018-07-31T11:27:49.349Z,100888.66
2018-07-31T11:30:18.585Z,100886.23
2018-07-31T11:32:51.334Z,100890.94
2018-07-31T11:35:20.945Z,100884.25
2018-07-31T11:37:50.909Z,100885.20
2018-07-31T11:40:20.012Z,100884.19
2018-07-31T11:42:49.236Z,100880.26
2018-07-31T11:45:21.806Z,100878.89
2018-07-31T11:47:51.582Z,100878.56
2018-07-31T11:50:20.839Z,100881.73
2018-07-31T11:52:49.927Z,100890.63
2018-07-31T11:55:19.852Z,100879.20
2018-07-31T11:57:50.610Z,100871.63
2018-07-31T12:00:19.740Z,100873.20
2018-07-31T12:02:48.865Z,100874.75
2018-07-31T12:05:17.971Z,100872.81
2018-07-31T12:07:47.089Z,100871.20
2018-07-31T12:10:16.205Z,100862.67
2018-07-31T12:12:45.308Z,100865.37
2018-07-31T12:15:14.421Z,100863.87
2018-07-31T12:17:43.533Z,100865.81
2018-07-31T12:20:12.632Z,100868.20
2018-07-31T12:22:41.732Z,100867.63
2018-07-31T12:25:10.849Z,100867.65
2018-07-31T12:27:39.973Z,100867.05
2018-07-31T12:30:10.259Z,100873.69
2018-07-31T12:32:40.319Z,100862.47
2018-07-31T12:35:09.709Z,100861.70
2018-07-31T12:37:38.847Z,100868.27
2018-07-31T12:40:08.096Z,100868.97
2018-07-31T12:42:37.245Z,100869.92
2018-07-31T12:45:06.341Z,100867.75
2018-07-31T12:47:35.511Z,100871.98
2018-07-31T12:50:05.024Z,100880.20
2018-07-31T12:52:35.156Z,100876.89
2018-07-31T12:55:04.376Z,100877.26
2018-07-31T12:57:33.497Z,100878.63
2018-07-31T13:00:02.672Z,100884.30
2018-07-31T13:02:31.752Z,100888.49
2018-07-31T13:05:00.832Z,100880.17
2018-07-31T13:07:30.011Z,100879.58
2018-07-31T13:09:59.088Z,100875.13
2018-07-31T13:12:28.185Z,100879.55
2018-07-31T13:14:57.277Z,100886.06
2018-07-31T13:17:26.401Z,100882.33
2018-07-31T13:19:55.505Z,100875.56
2018-07-31T13:22:24.656Z,100883.70
2018-07-31T13:24:53.745Z,100876.70
2018-07-31T13:27:22.834Z,100878.24
2018-07-31T13:29:51.939Z,100869.53
2018-07-31T13:32:21.064Z,100877.39
2018-07-31T13:34:50.191Z,100878.82
2018-07-31T13:37:19.303Z,100875.20
2018-07-31T13:39:48.395Z,100871.02
2018-07-31T13:42:17.492Z,100877.77
2018-07-31T13:44:46.743Z,100875.33
2018-07-31T13:47:15.849Z,100870.86
2018-07-31T13:49:44.957Z,100885.47
2018-07-31T13:52:14.061Z,100881.64
2018-07-31T13:54:43.160Z,100886.80
2018-07-31T13:57:12.268Z,100883.41
2018-07-31T13:59:41.377Z,100884.66
2018-07-31T14:02:10.465Z,100887.31
2018-07-31T14:04:39.725Z,100887.38
2018-07-31T14:07:08.913Z,100886.41
2018-07-31T14:09:37.957Z,100882.69
2018-07-31T14:12:07.122Z,100882.78
2018-07-31T14:14:36.218Z,100883.38
2018-07-31T14:17:05.305Z,100882.05
2018-07-31T14:19:34.408Z,100880.98
2018-07-31T14:22:03.488Z,100886.03
2018-07-31T14:24:32.710Z,100890.61
2018-07-31T14:27:01.829Z,100887.95
2018-07-31T14:29:31.360Z,100887.00
2018-07-31T14:32:00.472Z,100885.34
2018-07-31T14:34:29.587Z,100889.38
2018-07-31T14:36:58.710Z,100886.17
2018-07-31T14:39:27.816Z,100886.30
2018-07-31T14:41:56.945Z,100881.96
2018-07-31T14:44:26.036Z,100891.98
2018-07-31T14:46:55.730Z,100896.07
2018-07-31T14:49:24.944Z,100899.66
2018-07-31T14:51:54.880Z,100897.49
2018-07-31T14:54:23.966Z,100904.73
2018-07-31T14:56:53.099Z,100900.41
2018-07-31T14:59:22.196Z,100898.46
2018-07-31T15:01:51.312Z,100904.38
2018-07-31T15:04:20.396Z,100893.14
2018-07-31T15:06:49.521Z,100903.03
2018-07-31T15:09:18.616Z,100894.63
2018-07-31T15:11:47.857Z,100904.36
2018-07-31T15:14:16.965Z,100903.89
2018-07-31T15:16:46.072Z,100898.95
2018-07-31T15:19:15.148Z,100901.24
2018-07-31T15:21:44.250Z,100895.83
2018-07-31T15:24:13.345Z,100903.53
2018-07-31T15:26:42.461Z,100901.36
2018-07-31T15:29:11.547Z,100901.35
2018-07-31T15:31:40.665Z,100911.23
2018-07-31T15:34:09.768Z,100901.97
2018-07-31T15:36:38.850Z,100910.55
2018-07-31T15:39:11.633Z,100907.38
2018-07-31T15:41:41.062Z,100911.98
2018-07-31T15:44:10.433Z,100911.02
2018-07-31T15:46:39.512Z,100907.98
2018-07-31T15:49:08.652Z,100908.11
2018-07-31T15:51:37.746Z,100905.73
2018-07-31T15:54:06.993Z,100906.20
2018-07-31T15:56:36.064Z,100912.19
2018-07-31T15:59:05.597Z,100907.35
2018-07-31T16:01:34.746Z,100905.80
2018-07-31T16:04:03.832Z,100903.75
2018-07-31T16:06:32.943Z,100902.80
2018-07-31T16:09:02.079Z,100902.70
2018-07-31T16:11:31.161Z,100898.94
2018-07-31T16:14:00.292Z,100901.33
2018-07-31T16:16:29.361Z,100897.73
2018-07-31T16:18:58.461Z,100899.41
2018-07-31T16:21:27.557Z,100894.09
2018-07-31T16:23:56.703Z,100898.54
2018-07-31T16:26:25.820Z,100894.20
2018-07-31T16:28:55.037Z,100896.28
2018-07-31T16:31:24.920Z,100902.36
2018-07-31T16:33:54.032Z,100898.02
2018-07-31T16:36:23.144Z,100903.42
2018-07-31T16:38:53.484Z,100897.86
2018-07-31T16:41:24.200Z,100903.34
2018-07-31T16:43:54.310Z,100910.63
2018-07-31T16:46:24.368Z,100913.52
2018-07-31T16:48:54.298Z,100906.20
2018-07-31T16:51:24.277Z,100905.11
2018-07-31T16:53:53.449Z,100901.45
2018-07-31T16:56:22.548Z,100910.68
2018-07-31T16:58:51.712Z,100920.95
2018-07-31T17:01:20.808Z,100920.74
2018-07-31T17:03:49.993Z,100922.80
2018-07-31T17:06:19.152Z,100930.52
2018-07-31T17:08:48.248Z,100937.61
2018-07-31T17:11:17.363Z,100940.84
2018-07-31T17:13:46.450Z,100946.25
2018-07-31T17:16:15.650Z,100952.63
2018-07-31T17:18:44.772Z,100952.36
2018-07-31T17:21:13.889Z,100951.05
2018-07-31T17:23:42.974Z,100958.05
2018-07-31T17:26:12.420Z,100963.64
2018-07-31T17:28:41.928Z,100973.71
2018-07-31T17:31:11.040Z,100972.32
2018-07-31T17:33:40.114Z,100975.31
2018-07-31T17:36:09.240Z,100974.20
2018-07-31T17:38:38.337Z,100980.83
2018-07-31T17:41:07.445Z,100985.89
2018-07-31T17:43:36.621Z,100994.16
2018-07-31T17:46:05.749Z,100994.72
2018-07-31T17:48:34.896Z,101001.49
2018-07-31T17:51:03.945Z,101003.28
2018-07-31T17:53:33.080Z,101007.71
2018-07-31T17:56:02.193Z,101008.64
2018-07-31T17:58:32.328Z,101012.02
2018-07-31T18:01:01.744Z,101012.05
2018-07-31T18:03:31.325Z,101024.52
2018-07-31T18:06:00.524Z,101024.70
2018-07-31T18:08:29.719Z,101031.17
2018-07-31T18:10:58.807Z,101041.31
2018-07-31T18:13:28.033Z,101044.35
2018-07-31T18:15:57.237Z,101046.84
2018-07-31T18:18:28.032Z,101051.17
2018-07-31T18:20:57.508Z,101055.70
2018-07-31T18:23:26.817Z,101057.89
2018-07-31T18:25:56.772Z,101064.80
2018-07-31T18:28:26.192Z,101066.69
2018-07-31T18:30:55.377Z,101067.22
2018-07-31T18:33:24.473Z,101073.64
2018-07-31T18:35:53.564Z,101069.41
2018-07-31T18:38:22.705Z,101083.95
2018-07-31T18:40:51.825Z,101087.30
2018-07-31T18:43:21.024Z,101089.67
2018-07-31T18:45:50.124Z,101097.32
2018-07-31T18:48:19.236Z,101096.67
2018-07-31T18:50:48.409Z,101108.88
2018-07-31T18:53:17.640Z,101106.66
2018-07-31T18:55:46.782Z,101109.42
2018-07-31T18:58:15.876Z,101112.78
2018-07-31T19:00:44.992Z,101121.59
2018-07-31T19:03:14.162Z,101129.02
2018-07-31T19:05:43.258Z,101136.10
2018-07-31T19:08:12.446Z,101135.46
2018-07-31T19:10:41.644Z,101134.28
2018-07-31T19:13:10.759Z,101139.86
2018-07-31T19:15:39.876Z,101139.75
2018-07-31T19:18:08.977Z,101136.83
2018-07-31T19:20:38.082Z,101145.63
2018-07-31T19:23:07.204Z,101149.81
2018-07-31T19:25:36.305Z,101152.26
2018-07-31T19:28:05.560Z,101165.33
2018-07-31T19:30:34.607Z,101168.71
2018-07-31T19:33:03.730Z,101172.56
2018-07-31T19:35:32.849Z,101170.86
2018-07-31T19:38:01.980Z,101173.54
2018-07-31T19:40:31.159Z,101177.84
2018-07-31T19:43:00.225Z,101184.55
2018-07-31T19:45:29.352Z,101184.04
2018-07-31T19:47:58.480Z,101198.55
2018-07-31T19:50:27.600Z,101202.99
2018-07-31T19:52:56.676Z,101200.11
2018-07-31T19:55:25.777Z,101202.39
2018-07-31T19:57:54.872Z,101206.98
2018-07-31T20:00:23.957Z,101209.66
2018-07-31T20:02:53.096Z,101219.77
2018-07-31T20:05:22.197Z,101216.80
2018-07-31T20:07:51.332Z,101226.37
2018-07-31T20:10:20.447Z,101227.69
2018-07-31T20:12:49.544Z,101231.56
2018-07-31T20:15:18.665Z,101229.19
2018-07-31T20:17:47.825Z,101232.16
2018-07-31T20:20:16.912Z,101236.09
2018-07-31T20:22:46.016Z,101238.61
2018-07-31T20:25:15.113Z,101249.73
2018-07-31T20:27:44.292Z,101250.54
2018-07-31T20:30:13.402Z,101249.78
2018-07-31T20:32:42.520Z,101248.74
2018-07-31T20:35:11.624Z,101249.57
2018-07-31T20:37:41.656Z,101262.91
2018-07-31T20:40:14.611Z,101269.35
2018-07-31T20:42:43.889Z,101267.02
2018-07-31T20:45:12.991Z,101260.77
2018-07-31T20:47:42.139Z,101264.63
2018-07-31T20:50:11.228Z,101268.82
2018-07-31T20:52:41.020Z,101271.72
2018-07-31T20:55:10.199Z,101274.25
2018-07-31T20:57:39.288Z,101270.27
2018-07-31T21:00:08.444Z,101272.48
2018-07-31T21:02:37.552Z,101271.86
2018-07-31T21:05:06.721Z,101284.72
2018-07-31T21:07:35.817Z,101288.13
2018-07-31T21:10:05.637Z,101288.41
2018-07-31T21:12:34.764Z,101282.14
2018-07-31T21:15:03.920Z,101291.99
2018-07-31T21:17:33.642Z,101286.84
2018-07-31T21:20:02.741Z,101288.41
2018-07-31T21:22:31.809Z,101293.72
2018-07-31T21:25:00.918Z,101291.20
2018-07-31T21:27:29.995Z,101296.77
2018-07-31T21:29:59.107Z,101304.25
2018-07-31T21:32:28.180Z,101310.73
2018-07-31T21:34:57.265Z,101315.64
2018-07-31T21:37:26.333Z,101313.81
2018-07-31T21:39:55.433Z,101307.95
2018-07-31T21:42:24.520Z,101314.26
2018-07-31T21:44:53.612Z,101311.59
2018-07-31T21:47:22.708Z,101316.58
2018-07-31T21:49:51.871Z,101318.36
2018-07-31T21:52:20.983Z,101312.02
2018-07-31T21:54:50.109Z,101312.77
2018-07-31T21:57:19.179Z,101321.37
2018-07-31T21:59:48.312Z,101326.14
2018-07-31T22:02:17.404Z,101328.02
2018-07-31T22:04:46.488Z,101343.81
2018-07-31T22:07:15.612Z,101341.31
2018-07-31T22:09:45.531Z,101329.70
2018-07-31T22:12:14.608Z,101330.45
2018-07-31T22:14:43.740Z,101336.83
2018-07-31T22:17:12.817Z,101347.14
2018-07-31T22:19:41.940Z,101346.28
2018-07-31T22:22:11.053Z,101339.93
2018-07-31T22:24:40.226Z,101333.55
2018-07-31T22:27:09.261Z,101337.24
2018-07-31T22:29:38.376Z,101342.43
2018-07-31T22:32:07.537Z,101352.94
2018-07-31T22:34:36.612Z,101360.05
2018-07-31T22:37:05.727Z,101363.63
2018-07-31T22:39:34.809Z,101356.45
2018-07-31T22:42:03.921Z,101356.86
2018-07-31T22:44:33.000Z,101352.14
2018-07-31T22:47:02.116Z,101368.58
2018-07-31T22:49:31.184Z,101380.32
2018-07-31T22:52:00.288Z,101381.54
2018-07-31T22:54:29.363Z,101390.78
2018-07-31T22:56:58.456Z,101396.11
2018-07-31T22:59:27.540Z,101400.88
2018-07-31T23:01:56.652Z,101398.69
2018-07-31T23:04:25.749Z,101400.72
2018-07-31T23:06:54.843Z,101408.50
2018-07-31T23:09:23.975Z,101401.98
2018-07-31T23:11:53.092Z,101400.20
2018-07-31T23:14:22.181Z,101410.18
2018-07-31T23:16:51.267Z,101403.33
2018-07-31T23:19:20.388Z,101388.00
2018-07-31T23:21:49.504Z,101382.23
2018-07-31T23:24:18.569Z,101390.17
2018-07-31T23:26:47.660Z,101395.40
2018-07-31T23:29:16.735Z,101389.19
2018-07-31T23:31:45.840Z,101395.36
2018-07-31T23:34:14.912Z,101406.87
2018-07-31T23:36:44.011Z,101406.58
2018-07-31T23:39:13.089Z,101406.56
2018-07-31T23:41:42.192Z,101406.58
2018-07-31T23:44:11.259Z,101404.28
2018-07-31T23:46:40.364Z,101401.14
2018-07-31T23:49:09.439Z,101405.00
2018-07-31T23:51:38.556Z,101416.09
2018-07-31T23:54:07.628Z,101412.89
2018-07-31T23:56:36.721Z,101408.91
2018-07-31T23:59:05.818Z,101414.83
